MAPA DE AEROPUERTO

INFORMACIÓN METAR y TAF

METAR FOR LEAL
ADDS - METARS form results

(1847 UTC 17 April 2021)
Data provider http://aviationweather.gov/metar/data/
 
METAR text: LEAL 171830Z 10004KT 070V140 9999 FEW025 13/08 Q1017 NOSIG
Conditions at: LEAL (ALICANTE/EL ALTE, ES) observed 1830 UTC 17 April 2021
Temperature: 13.0°C (55°F)
Dewpoint: 8.0°C (46°F) [RH = 72%]
Pressure (altimeter): 30.03 inches Hg (1017.0 mb)
Winds: from the E (100 degrees) at 5 MPH (4 knots; 2.1 m/s)
Visibility: 6 or more miles (10+ km)
Ceiling: at least 12,000 feet AGL
Clouds: few clouds at 2500 feet AGL
Weather: no significant weather observed at this time

METAR text: LEAL 171800Z 09007KT 9999 FEW018 SCT045 13/08 Q1017 NOSIG
Conditions at: LEAL (ALICANTE/EL ALTE, ES) observed 1800 UTC 17 April 2021
Temperature: 13.0°C (55°F)
Dewpoint: 8.0°C (46°F) [RH = 72%]
Pressure (altimeter): 30.03 inches Hg (1017.0 mb)
Winds: from the E (90 degrees) at 8 MPH (7 knots; 3.6 m/s)
Visibility: 6 or more miles (10+ km)
Ceiling: at least 12,000 feet AGL
Clouds: few clouds at 1800 feet AGL
scattered clouds at 4500 feet AGL
Weather: no significant weather observed at this time

Forecast for: LEAL (ALICANTE/EL ALTE, ES)
Text: TAF LEAL 171700Z 1718/1818 11010KT 9999 FEW020 BKN030 TX15/1812Z TN09/1806Z
Forecast period: 1800 UTC 17 April 2021 to 1800 UTC 18 April 2021
Forecast type: FROM: standard forecast or significant change
Winds: from the ESE (110 degrees) at 12 MPH (10 knots; 5.1 m/s)
Visibility: 6 or more miles (10+ km)
Ceiling: 3000 feet AGL
Clouds: few clouds at 2000 feet AGL
broken clouds at 3000 feet AGL
Weather: no significant weather forecast for this period
Text: BECMG 1718/1721 32008KT
Forecast period: 1800 UTC 17 April 2021 to 0800 UTC 18 April 2021
Forecast type: BECOMING: Conditions expected to become as follows by 2100 UTC 17 April 2021
Winds: from the NW (320 degrees) at 9 MPH (8 knots; 4.1 m/s)
Visibility: 6 or more miles (10+ km)
Ceiling: 3000 feet AGL
Clouds: few clouds at 2000 feet AGL
broken clouds at 3000 feet AGL
Weather: no significant weather forecast for this period
Text: BECMG 1808/1811 12010KT
Forecast period: 0800 to 1800 UTC 18 April 2021
Forecast type: BECOMING: Conditions expected to become as follows by 1100 UTC 18 April 2021
Winds: from the ESE (120 degrees) at 12 MPH (10 knots; 5.1 m/s)
Visibility: 6 or more miles (10+ km)
Ceiling: 3000 feet AGL
Clouds: few clouds at 2000 feet AGL
broken clouds at 3000 feet AGL
Weather: no significant weather forecast for this period